createdAt,value
2023-07-03T00:01:23.072Z,19.50
2023-07-03T00:03:53.089Z,14.15
2023-07-03T00:06:19.929Z,21.90
2023-07-03T00:08:46.527Z,18.35
2023-07-03T00:11:13.125Z,14.57
2023-07-03T00:13:39.594Z,11.63
2023-07-03T00:16:06.441Z,11.32
2023-07-03T00:18:33.126Z,16.35
2023-07-03T00:20:59.816Z,15.77
2023-07-03T00:23:26.993Z,11.45
2023-07-03T00:25:53.840Z,9.43
2023-07-03T00:28:20.893Z,14.10
2023-07-03T00:30:47.388Z,13.88
2023-07-03T00:33:14.028Z,11.65
2023-07-03T00:35:40.745Z,14.40
2023-07-03T00:38:07.799Z,16.07
2023-07-03T00:40:34.404Z,15.38
2023-07-03T00:43:01.963Z,19.08
2023-07-03T00:45:29.421Z,14.25
2023-07-03T00:47:56.359Z,15.20
2023-07-03T00:50:23.553Z,15.23
2023-07-03T00:52:56.029Z,14.35
2023-07-03T00:55:23.395Z,11.75
2023-07-03T00:57:52.193Z,13.07
2023-07-03T01:00:27.804Z,15.50
2023-07-03T01:03:21.611Z,14.30
2023-07-03T01:05:51.468Z,12.70
2023-07-03T01:08:18.880Z,15.48
2023-07-03T01:10:46.459Z,17.33
2023-07-03T01:13:17.524Z,14.45
2023-07-03T01:15:45.805Z,15.87
2023-07-03T01:18:13.735Z,14.15
2023-07-03T01:20:46.707Z,13.50
2023-07-03T01:23:19.080Z,14.60
2023-07-03T01:25:48.424Z,17.95
2023-07-03T01:28:19.234Z,14.00
2023-07-03T01:30:47.813Z,14.18
2023-07-03T01:33:22.901Z,17.00
2023-07-03T01:35:51.270Z,21.42
2023-07-03T01:38:21.028Z,16.40
2023-07-03T01:40:48.254Z,19.57
2023-07-03T01:43:15.282Z,14.68
2023-07-03T01:45:46.905Z,17.73
2023-07-03T01:48:14.074Z,12.90
2023-07-03T01:50:41.555Z,18.85
2023-07-03T01:53:41.964Z,13.27
2023-07-03T01:56:22.947Z,18.88
2023-07-03T01:58:52.949Z,17.95
2023-07-03T02:01:28.326Z,16.48
2023-07-03T02:04:11.965Z,11.40
2023-07-03T02:06:43.064Z,13.13
2023-07-03T02:09:10.913Z,14.68
2023-07-03T02:11:37.609Z,15.50
2023-07-03T02:14:04.423Z,18.10
2023-07-03T02:16:31.221Z,13.05
2023-07-03T02:18:59.966Z,15.83
2023-07-03T02:21:28.562Z,17.23
2023-07-03T02:23:55.381Z,18.20
2023-07-03T02:26:22.026Z,22.42
2023-07-03T02:28:48.555Z,15.68
2023-07-03T02:31:15.240Z,11.77
2023-07-03T02:33:41.973Z,13.90
2023-07-03T02:36:08.509Z,16.60
2023-07-03T02:38:35.085Z,18.88
2023-07-03T02:41:03.177Z,13.63
2023-07-03T02:43:33.055Z,18.43
2023-07-03T02:46:04.621Z,16.52
2023-07-03T02:48:31.458Z,19.15
2023-07-03T02:50:58.376Z,19.38
2023-07-03T02:53:24.936Z,18.10
2023-07-03T02:55:54.765Z,11.37
2023-07-03T02:58:23.537Z,15.50
2023-07-03T03:00:50.245Z,18.40
2023-07-03T03:03:17.024Z,18.60
2023-07-03T03:05:43.720Z,20.70
2023-07-03T03:08:12.446Z,15.40
2023-07-03T03:10:39.393Z,13.32
2023-07-03T03:13:06.299Z,17.45
2023-07-03T03:15:36.088Z,17.17
2023-07-03T03:18:06.069Z,14.10
2023-07-03T03:20:33.138Z,11.07
2023-07-03T03:22:59.901Z,14.82
2023-07-03T03:25:26.594Z,17.95
2023-07-03T03:27:53.131Z,13.45
2023-07-03T03:30:19.766Z,18.27
2023-07-03T03:32:47.943Z,16.80
2023-07-03T03:35:14.773Z,15.00
2023-07-03T03:37:41.464Z,14.30
2023-07-03T03:40:10.272Z,18.15
2023-07-03T03:42:37.859Z,20.80
2023-07-03T03:45:05.483Z,26.13
2023-07-03T03:47:32.098Z,21.33
2023-07-03T03:49:58.725Z,18.42
2023-07-03T03:54:52.310Z,22.35
2023-07-03T03:57:19.231Z,21.17
2023-07-03T03:59:45.854Z,13.23
2023-07-03T04:02:15.903Z,15.43
2023-07-03T04:04:42.737Z,16.58
2023-07-03T04:07:10.593Z,11.45
2023-07-03T04:09:37.228Z,15.00
2023-07-03T04:12:04.003Z,14.25
2023-07-03T04:14:32.012Z,13.07
2023-07-03T04:16:59.454Z,13.60
2023-07-03T04:19:29.030Z,10.48
2023-07-03T04:21:55.627Z,12.37
2023-07-03T04:24:22.763Z,14.40
2023-07-03T04:26:49.553Z,13.02
2023-07-03T04:29:16.110Z,18.70
2023-07-03T04:31:42.709Z,15.38
2023-07-03T04:34:09.279Z,14.53
2023-07-03T04:36:35.794Z,13.05
2023-07-03T04:39:02.496Z,15.02
2023-07-03T04:41:29.203Z,13.63
2023-07-03T04:43:59.249Z,13.57
2023-07-03T04:46:27.972Z,14.63
2023-07-03T04:49:01.653Z,13.95
2023-07-03T04:51:32.139Z,15.10
2023-07-03T04:54:00.922Z,13.50
2023-07-03T04:56:28.907Z,14.95
2023-07-03T04:58:55.418Z,14.27
2023-07-03T05:01:22.323Z,11.23
2023-07-03T05:03:49.073Z,10.43
2023-07-03T05:06:15.735Z,8.57
2023-07-03T05:08:42.416Z,5.95
2023-07-03T05:11:09.198Z,7.33
2023-07-03T05:13:35.858Z,7.18
2023-07-03T05:16:02.646Z,5.35
2023-07-03T05:18:29.561Z,8.13
2023-07-03T05:20:56.274Z,5.22
2023-07-03T05:23:23.091Z,6.13
2023-07-03T05:25:49.954Z,7.40
2023-07-03T05:28:16.905Z,7.32
2023-07-03T05:30:43.480Z,6.03
2023-07-03T05:33:12.133Z,6.55
2023-07-03T05:35:48.714Z,6.53
2023-07-03T05:38:16.996Z,6.28
2023-07-03T05:40:43.565Z,6.10
2023-07-03T05:43:10.330Z,8.15
2023-07-03T05:45:37.008Z,5.93
2023-07-03T05:48:03.696Z,5.30
2023-07-03T05:50:30.351Z,6.93
2023-07-03T05:52:56.912Z,6.70
2023-07-03T05:55:23.674Z,6.90
2023-07-03T05:57:50.320Z,4.25
2023-07-03T06:00:17.441Z,6.10
2023-07-03T06:02:45.355Z,6.78
2023-07-03T06:05:13.296Z,6.82
2023-07-03T06:07:40.765Z,6.80
2023-07-03T06:10:09.156Z,5.55
2023-07-03T06:12:35.746Z,6.27
2023-07-03T06:15:02.534Z,7.78
2023-07-03T06:17:30.586Z,10.27
2023-07-03T06:19:57.313Z,12.68
2023-07-03T06:22:24.279Z,6.00
2023-07-03T06:24:51.219Z,7.63
2023-07-03T06:27:18.361Z,9.13
2023-07-03T06:29:46.054Z,6.82
2023-07-03T06:32:12.713Z,7.63
2023-07-03T06:34:40.842Z,5.55
2023-07-03T06:37:08.900Z,6.33
2023-07-03T06:39:39.064Z,5.40
2023-07-03T06:42:06.505Z,5.75
2023-07-03T06:44:33.105Z,7.68
2023-07-03T06:46:59.889Z,5.80
2023-07-03T06:49:26.859Z,5.50
2023-07-03T06:51:53.578Z,6.97
2023-07-03T06:54:20.673Z,6.90
2023-07-03T06:56:48.272Z,7.28
2023-07-03T06:59:14.927Z,5.70
2023-07-03T07:01:42.399Z,2.80
2023-07-03T07:04:12.053Z,9.38
2023-07-03T07:06:40.295Z,9.10
2023-07-03T07:09:06.985Z,5.90
2023-07-03T07:11:35.929Z,7.82
2023-07-03T07:14:04.290Z,6.30
2023-07-03T07:16:35.569Z,5.53
2023-07-03T07:19:06.772Z,8.10
2023-07-03T07:21:36.030Z,5.80
2023-07-03T07:24:23.924Z,5.57
2023-07-03T07:26:59.356Z,8.57
2023-07-03T07:29:26.584Z,4.88
2023-07-03T07:31:57.756Z,5.38
2023-07-03T07:34:25.287Z,4.13
2023-07-03T07:36:52.330Z,3.58
2023-07-03T07:39:21.389Z,5.00
2023-07-03T07:41:48.800Z,8.30
2023-07-03T07:44:15.318Z,5.30
2023-07-03T07:46:42.137Z,10.32
2023-07-03T07:49:09.980Z,6.35
2023-07-03T07:51:37.598Z,6.63
2023-07-03T07:54:06.447Z,8.25
2023-07-03T07:56:34.450Z,7.85
2023-07-03T07:59:01.613Z,4.25
2023-07-03T08:01:28.427Z,4.82
2023-07-03T08:03:55.379Z,4.67
2023-07-03T08:06:22.258Z,5.22
2023-07-03T08:08:51.050Z,7.18
2023-07-03T08:11:17.605Z,5.18
2023-07-03T08:13:44.140Z,10.20
2023-07-03T08:16:11.880Z,4.17
2023-07-03T08:18:39.030Z,6.13
2023-07-03T08:21:05.791Z,7.70
2023-07-03T08:23:32.466Z,5.50
2023-07-03T08:26:00.283Z,4.20
2023-07-03T08:28:27.214Z,4.53
2023-07-03T08:30:53.997Z,4.28
2023-07-03T08:33:20.846Z,6.38
2023-07-03T08:38:21.052Z,7.75
2023-07-03T08:40:48.351Z,5.60
2023-07-03T08:43:22.693Z,5.50
2023-07-03T08:45:52.220Z,9.52
2023-07-03T08:48:25.383Z,5.68
2023-07-03T08:50:55.870Z,5.07
2023-07-03T08:53:28.540Z,5.67
2023-07-03T08:56:36.878Z,5.03
2023-07-03T08:59:05.528Z,4.78
2023-07-03T09:01:49.534Z,6.05
2023-07-03T09:04:42.331Z,6.70
2023-07-03T09:07:14.821Z,8.97
2023-07-03T09:09:58.622Z,3.80
2023-07-03T09:13:06.310Z,4.43
2023-07-03T09:15:46.516Z,6.43
2023-07-03T09:18:18.811Z,8.30
2023-07-03T09:20:46.679Z,4.27
2023-07-03T09:23:29.881Z,4.82
2023-07-03T09:26:05.233Z,4.68
2023-07-03T09:28:38.558Z,4.00
2023-07-03T09:31:05.516Z,5.93
2023-07-03T09:33:32.377Z,10.30
2023-07-03T09:36:20.022Z,5.18
2023-07-03T09:38:48.555Z,6.13
2023-07-03T09:41:25.201Z,6.13
2023-07-03T09:43:51.819Z,4.85
2023-07-03T09:46:20.923Z,5.13
2023-07-03T09:48:48.013Z,3.72
2023-07-03T09:51:24.306Z,3.92
2023-07-03T09:53:51.610Z,6.32
2023-07-03T09:56:22.833Z,5.05
2023-07-03T09:58:52.369Z,6.67
2023-07-03T10:06:42.993Z,6.03
2023-07-03T10:12:03.872Z,4.60
2023-07-03T10:14:53.684Z,5.22
2023-07-03T10:17:31.644Z,4.90
2023-07-03T10:20:04.968Z,5.38
2023-07-03T10:22:32.772Z,4.82
2023-07-03T10:25:03.617Z,4.20
2023-07-03T10:27:31.463Z,4.38
2023-07-03T10:30:00.268Z,4.22
2023-07-03T10:32:34.464Z,2.92
2023-07-03T10:35:11.751Z,4.72
2023-07-03T10:38:12.223Z,4.97
2023-07-03T10:40:59.323Z,7.30
2023-07-03T10:43:29.923Z,6.50
2023-07-03T10:45:58.364Z,5.05
2023-07-03T10:48:29.998Z,5.97
2023-07-03T10:51:05.920Z,4.33
2023-07-03T10:53:45.856Z,6.32
2023-07-03T10:56:42.811Z,6.00
2023-07-03T10:59:16.380Z,6.07
2023-07-03T11:02:03.822Z,5.63
2023-07-03T11:04:56.550Z,6.20
2023-07-03T11:07:48.572Z,4.15
2023-07-03T11:10:45.203Z,7.05
2023-07-03T11:13:18.161Z,8.00
2023-07-03T11:15:54.083Z,8.32
2023-07-03T11:24:01.924Z,10.75
2023-07-03T11:29:13.027Z,4.70
2023-07-03T11:31:43.760Z,10.03
2023-07-03T11:44:32.217Z,5.50
2023-07-03T11:47:00.538Z,6.90
2023-07-03T11:49:38.741Z,4.07
2023-07-03T11:52:07.593Z,7.90
2023-07-03T11:54:37.130Z,5.80
2023-07-03T11:57:07.939Z,6.60
2023-07-03T11:59:44.029Z,5.30
2023-07-03T12:02:16.777Z,7.97
2023-07-03T12:04:49.481Z,9.55
2023-07-03T12:07:19.982Z,5.93
2023-07-03T12:09:47.764Z,7.20
2023-07-03T12:12:29.600Z,8.15
2023-07-03T12:14:58.796Z,9.95
2023-07-03T12:17:33.973Z,4.40
2023-07-03T12:20:08.418Z,4.90
2023-07-03T12:22:41.163Z,7.60
2023-07-03T12:25:20.302Z,6.40
2023-07-03T12:27:48.587Z,4.50
2023-07-03T12:30:22.823Z,6.55
2023-07-03T12:32:50.114Z,6.18
2023-07-03T12:35:23.344Z,8.80
2023-07-03T12:37:52.852Z,2.22
2023-07-03T12:40:20.995Z,6.60
2023-07-03T12:42:49.293Z,5.50
2023-07-03T12:45:20.534Z,5.07
2023-07-03T12:48:10.092Z,6.10
2023-07-03T12:50:46.485Z,5.07
2023-07-03T12:53:13.905Z,5.45
2023-07-03T12:55:42.529Z,4.63
2023-07-03T12:58:12.892Z,3.15
2023-07-03T13:00:39.898Z,3.97
2023-07-03T13:03:09.068Z,6.53
2023-07-03T13:05:37.522Z,4.63
2023-07-03T13:08:11.084Z,4.82
2023-07-03T13:10:38.011Z,4.55
2023-07-03T13:13:18.346Z,5.10
2023-07-03T13:15:46.141Z,5.82
2023-07-03T13:18:14.726Z,11.40
2023-07-03T13:20:53.892Z,3.63
2023-07-03T13:23:36.143Z,5.45
2023-07-03T13:26:07.305Z,4.30
2023-07-03T13:28:37.495Z,3.78
2023-07-03T13:31:04.144Z,5.90
2023-07-03T13:33:30.880Z,3.95
2023-07-03T13:35:57.629Z,3.33
2023-07-03T13:38:24.450Z,4.13
2023-07-03T13:40:53.540Z,3.85
2023-07-03T13:43:23.088Z,7.38
2023-07-03T13:45:51.800Z,4.38
2023-07-03T13:48:19.569Z,5.25
2023-07-03T13:50:47.057Z,6.30
2023-07-03T13:53:13.650Z,2.55
2023-07-03T13:55:40.886Z,4.80
2023-07-03T13:58:07.617Z,4.43
2023-07-03T14:00:35.730Z,3.70
2023-07-03T14:03:02.745Z,9.83
2023-07-03T14:05:29.476Z,5.35
2023-07-03T14:07:58.997Z,3.17
2023-07-03T14:10:26.329Z,3.65
2023-07-03T14:12:53.821Z,4.05
2023-07-03T14:15:26.898Z,6.73
2023-07-03T14:17:54.319Z,4.40
2023-07-03T14:20:22.782Z,6.45
2023-07-03T14:22:49.604Z,4.72
2023-07-03T14:25:17.555Z,4.45
2023-07-03T14:27:44.420Z,5.20
2023-07-03T14:30:12.758Z,7.95
2023-07-03T14:32:53.113Z,6.55
2023-07-03T14:35:23.895Z,5.47
2023-07-03T14:37:50.728Z,6.50
2023-07-03T14:40:17.736Z,5.50
2023-07-03T14:42:45.302Z,7.38
2023-07-03T14:45:12.736Z,3.53
2023-07-03T14:47:41.668Z,7.43
2023-07-03T14:50:12.870Z,8.88
2023-07-03T14:52:44.920Z,6.10
2023-07-03T14:55:13.604Z,4.43
2023-07-03T14:57:40.895Z,4.10
2023-07-03T15:00:09.916Z,3.42
2023-07-03T15:02:38.733Z,4.63
2023-07-03T15:05:05.857Z,6.20
2023-07-03T15:07:32.558Z,6.50
2023-07-03T15:09:59.222Z,4.90
2023-07-03T15:12:25.820Z,6.07
2023-07-03T15:14:55.705Z,5.18
2023-07-03T15:17:22.274Z,4.87
2023-07-03T15:19:48.876Z,6.18
2023-07-03T15:22:16.816Z,5.70
2023-07-03T15:24:44.007Z,7.07
2023-07-03T15:27:11.513Z,3.70
2023-07-03T15:29:38.070Z,4.20
2023-07-03T15:32:04.955Z,5.35
2023-07-03T15:34:31.565Z,4.47
2023-07-03T15:36:58.980Z,4.30
2023-07-03T15:39:26.737Z,7.68
2023-07-03T15:41:53.651Z,5.37
2023-07-03T15:44:21.217Z,3.75
2023-07-03T15:46:50.416Z,5.45
2023-07-03T15:49:17.217Z,4.22
2023-07-03T15:51:44.706Z,5.63
2023-07-03T15:54:11.339Z,5.20
2023-07-03T15:56:38.126Z,4.32
2023-07-03T15:59:05.295Z,5.13
2023-07-03T16:01:31.893Z,8.40
2023-07-03T16:04:02.358Z,5.15
2023-07-03T16:06:34.988Z,5.20
2023-07-03T16:09:02.536Z,10.25
2023-07-03T16:11:29.908Z,6.05
2023-07-03T16:13:59.874Z,5.60
2023-07-03T16:16:28.614Z,5.85
2023-07-03T16:19:00.814Z,6.80
2023-07-03T16:21:30.949Z,8.25
2023-07-03T16:23:58.934Z,8.00
2023-07-03T16:26:26.951Z,6.72
2023-07-03T16:28:54.568Z,4.10
2023-07-03T16:31:23.790Z,4.72
2023-07-03T16:33:52.186Z,4.43
2023-07-03T16:36:24.344Z,3.33
2023-07-03T16:38:53.313Z,6.80
2023-07-03T16:41:21.526Z,3.13
2023-07-03T16:43:50.223Z,4.10
2023-07-03T16:46:19.976Z,5.40
2023-07-03T16:48:49.027Z,3.40
2023-07-03T16:51:18.236Z,3.33
2023-07-03T16:53:45.876Z,3.70
2023-07-03T16:56:13.825Z,4.97
2023-07-03T16:58:44.226Z,5.60
2023-07-03T17:01:12.158Z,4.88
2023-07-03T17:03:39.024Z,4.38
2023-07-03T17:06:13.783Z,7.30
2023-07-03T17:08:40.322Z,4.57
2023-07-03T17:11:06.981Z,7.43
2023-07-03T17:13:33.643Z,8.60
2023-07-03T17:16:00.418Z,6.15
2023-07-03T17:18:27.066Z,4.57
2023-07-03T17:20:53.638Z,4.68
2023-07-03T17:23:20.258Z,6.47
2023-07-03T17:25:46.994Z,6.80
2023-07-03T17:28:13.742Z,8.88
2023-07-03T17:30:40.677Z,10.13
2023-07-03T17:33:08.548Z,8.35
2023-07-03T17:35:35.933Z,7.55
2023-07-03T17:38:02.634Z,7.28
2023-07-03T17:40:29.276Z,7.38
2023-07-03T17:42:55.802Z,6.33
2023-07-03T17:45:22.375Z,11.02
2023-07-03T17:47:49.144Z,9.27
2023-07-03T17:50:15.858Z,8.77
2023-07-03T17:52:42.794Z,5.75
2023-07-03T17:55:09.715Z,11.87
2023-07-03T17:57:36.335Z,8.45
2023-07-03T18:00:03.809Z,7.90
2023-07-03T18:02:30.736Z,7.40
2023-07-03T18:04:57.541Z,8.23
2023-07-03T18:07:24.299Z,7.17
2023-07-03T18:09:51.042Z,10.38
2023-07-03T18:12:17.820Z,7.45
2023-07-03T18:14:44.391Z,9.23
2023-07-03T18:17:12.040Z,6.78
2023-07-03T18:19:38.903Z,6.40
2023-07-03T18:22:05.466Z,7.13
2023-07-03T18:24:32.101Z,10.73
2023-07-03T18:26:58.790Z,9.68
2023-07-03T18:29:25.501Z,4.90
2023-07-03T18:31:52.326Z,11.13
2023-07-03T18:34:19.086Z,6.68
2023-07-03T18:36:45.673Z,8.20
2023-07-03T18:39:12.362Z,11.93
2023-07-03T18:41:39.090Z,8.05
2023-07-03T18:44:07.204Z,12.57
2023-07-03T18:46:34.131Z,11.35
2023-07-03T18:49:00.926Z,9.73
2023-07-03T18:51:27.659Z,11.23
2023-07-03T18:53:54.662Z,11.43
2023-07-03T18:56:22.768Z,9.03
2023-07-03T18:58:53.089Z,5.88
2023-07-03T19:01:20.451Z,7.43
2023-07-03T19:03:47.233Z,7.55
2023-07-03T19:06:16.730Z,9.18
2023-07-03T19:08:43.740Z,13.30
2023-07-03T19:11:10.752Z,9.15
2023-07-03T19:13:38.075Z,10.73
2023-07-03T19:16:06.802Z,9.43
2023-07-03T19:18:35.160Z,7.93
2023-07-03T19:21:01.741Z,9.83
2023-07-03T19:23:28.345Z,9.55
2023-07-03T19:25:56.977Z,6.75
2023-07-03T19:28:24.831Z,9.57
2023-07-03T19:31:02.933Z,7.47
2023-07-03T19:33:30.875Z,8.60
2023-07-03T19:36:00.464Z,9.73
2023-07-03T19:38:28.002Z,8.90
2023-07-03T19:40:54.743Z,8.55
2023-07-03T19:43:21.445Z,11.30
2023-07-03T19:45:48.095Z,11.60
2023-07-03T19:48:14.834Z,7.78
2023-07-03T19:50:42.775Z,10.85
2023-07-03T19:53:10.802Z,8.75
2023-07-03T19:55:38.902Z,7.10
2023-07-03T19:58:05.819Z,6.63
2023-07-03T20:00:32.954Z,5.05
2023-07-03T20:03:00.431Z,6.13
2023-07-03T20:05:26.980Z,4.30
2023-07-03T20:07:53.480Z,4.05
2023-07-03T20:10:20.358Z,6.30
2023-07-03T20:12:51.762Z,4.43
2023-07-03T20:15:20.881Z,6.28
2023-07-03T20:17:48.033Z,8.10
2023-07-03T20:20:15.664Z,7.35
2023-07-03T20:22:45.991Z,8.77
2023-07-03T20:25:12.926Z,7.07
2023-07-03T20:27:39.658Z,10.18
2023-07-03T20:30:07.580Z,9.68
2023-07-03T20:32:35.598Z,9.68
2023-07-03T20:35:03.109Z,8.10
2023-07-03T20:37:29.683Z,8.00
2023-07-03T20:39:58.982Z,7.70
2023-07-03T20:42:26.036Z,8.50
2023-07-03T20:44:54.776Z,10.93
2023-07-03T20:47:21.981Z,10.10
2023-07-03T20:49:48.935Z,10.57
2023-07-03T20:52:17.443Z,8.48
2023-07-03T20:54:54.474Z,10.10
2023-07-03T20:57:20.988Z,6.75
2023-07-03T20:59:51.501Z,6.00
2023-07-03T21:02:19.179Z,7.18
2023-07-03T21:04:45.734Z,8.20
2023-07-03T21:07:12.271Z,11.40
2023-07-03T21:09:38.975Z,6.40
2023-07-03T21:12:07.582Z,8.57
2023-07-03T21:14:34.194Z,6.90
2023-07-03T21:17:00.729Z,6.63
2023-07-03T21:19:27.414Z,5.82
2023-07-03T21:21:55.070Z,8.00
2023-07-03T21:24:22.503Z,6.77
2023-07-03T21:26:50.533Z,4.55
2023-07-03T21:29:17.098Z,9.70
2023-07-03T21:31:43.809Z,11.18
2023-07-03T21:34:13.113Z,6.25
2023-07-03T21:36:40.126Z,9.90
2023-07-03T21:39:07.251Z,6.80
2023-07-03T21:41:36.137Z,12.05
2023-07-03T21:44:11.386Z,11.48
2023-07-03T21:46:38.141Z,9.50
2023-07-03T21:49:05.914Z,5.63
2023-07-03T21:51:32.580Z,7.78
2023-07-03T21:53:59.378Z,10.00
2023-07-03T21:56:29.533Z,8.02
2023-07-03T21:59:04.862Z,8.85
2023-07-03T22:01:38.711Z,5.67
2023-07-03T22:04:07.361Z,4.50
2023-07-03T22:06:34.228Z,5.53
2023-07-03T22:09:00.800Z,3.63
2023-07-03T22:11:28.675Z,5.50
2023-07-03T22:13:55.962Z,5.83
2023-07-03T22:16:22.727Z,3.78
2023-07-03T22:18:50.348Z,5.97
2023-07-03T22:21:18.891Z,3.58
2023-07-03T22:23:50.023Z,4.75
2023-07-03T22:26:17.244Z,3.53
2023-07-03T22:28:44.009Z,4.43
2023-07-03T22:31:12.213Z,3.17
2023-07-03T22:33:39.455Z,4.85
2023-07-03T22:36:08.595Z,5.28
2023-07-03T22:38:35.314Z,4.27
2023-07-03T22:41:02.187Z,7.13
2023-07-03T22:43:31.625Z,5.93
2023-07-03T22:46:03.220Z,4.95
2023-07-03T22:48:30.848Z,8.25
2023-07-03T22:50:57.498Z,3.67
2023-07-03T22:53:24.084Z,3.70
2023-07-03T22:55:50.946Z,7.28
2023-07-03T22:58:17.730Z,7.95
2023-07-03T23:00:44.301Z,7.32
2023-07-03T23:03:11.097Z,9.00
2023-07-03T23:05:47.954Z,5.75
2023-07-03T23:08:16.252Z,5.82
2023-07-03T23:10:51.364Z,5.47
2023-07-03T23:13:19.199Z,6.90
2023-07-03T23:15:57.104Z,6.23
2023-07-03T23:18:24.382Z,5.40
2023-07-03T23:21:02.123Z,7.10
2023-07-03T23:23:32.198Z,7.47
2023-07-03T23:26:05.464Z,4.80
2023-07-03T23:28:35.879Z,1.70
2023-07-03T23:31:08.623Z,5.03
2023-07-03T23:33:35.546Z,5.93
2023-07-03T23:36:14.397Z,4.68
2023-07-03T23:38:42.888Z,7.82
2023-07-03T23:41:11.787Z,6.10
2023-07-03T23:43:39.868Z,6.38
2023-07-03T23:46:09.081Z,8.10
2023-07-03T23:48:37.110Z,8.57
2023-07-03T23:51:06.127Z,7.53
2023-07-03T23:53:34.190Z,7.87
2023-07-03T23:56:06.975Z,9.18
2023-07-03T23:58:35.384Z,11.02
